createdAt,value
2017-12-16T00:02:23.436Z,23.10
2017-12-16T00:04:51.687Z,23.50
2017-12-16T00:07:19.944Z,22.87
2017-12-16T00:09:47.532Z,22.87
2017-12-16T00:12:15.804Z,22.17
2017-12-16T00:14:44.052Z,22.33
2017-12-16T00:17:11.553Z,22.52
2017-12-16T00:19:39.791Z,22.30
2017-12-16T00:22:07.286Z,21.58
2017-12-16T00:24:35.542Z,22.55
2017-12-16T00:27:03.046Z,22.37
2017-12-16T00:29:30.523Z,22.33
2017-12-16T00:31:58.024Z,21.77
2017-12-16T00:34:26.274Z,22.75
2017-12-16T00:36:53.768Z,23.40
2017-12-16T00:39:21.326Z,22.02
2017-12-16T00:41:50.213Z,22.70
2017-12-16T00:44:18.483Z,22.33
2017-12-16T00:46:46.765Z,24.12
2017-12-16T00:49:15.027Z,23.50
2017-12-16T00:51:42.511Z,23.25
2017-12-16T00:54:10.002Z,22.75
2017-12-16T00:56:37.503Z,23.27
2017-12-16T00:59:05.024Z,21.92
2017-12-16T01:01:32.543Z,21.45
2017-12-16T01:04:00.032Z,22.17
2017-12-16T01:06:27.533Z,23.00
2017-12-16T01:08:55.783Z,21.90
2017-12-16T01:11:23.283Z,21.73
2017-12-16T01:13:51.535Z,20.73
2017-12-16T01:16:19.831Z,22.55
2017-12-16T01:18:48.092Z,21.37
2017-12-16T01:21:17.092Z,21.70
2017-12-16T01:23:44.602Z,22.95
2017-12-16T01:26:12.111Z,22.75
2017-12-16T01:28:40.376Z,22.37
2017-12-16T01:31:07.864Z,22.50
2017-12-16T01:33:47.357Z,21.87
2017-12-16T01:36:26.851Z,23.58
2017-12-16T01:38:54.421Z,22.75
2017-12-16T01:41:21.948Z,24.65
2017-12-16T01:43:50.191Z,24.12
2017-12-16T01:46:17.686Z,21.85
2017-12-16T01:48:45.957Z,23.33
2017-12-16T01:51:14.216Z,22.52
2017-12-16T01:53:41.790Z,23.98
2017-12-16T01:56:10.221Z,23.55
2017-12-16T01:58:38.550Z,24.42
2017-12-16T02:01:06.835Z,23.98
2017-12-16T02:03:35.105Z,25.48
2017-12-16T02:06:03.368Z,22.87
2017-12-16T02:08:31.620Z,24.73
2017-12-16T02:10:59.112Z,25.25
2017-12-16T02:13:27.360Z,23.15
2017-12-16T02:15:54.951Z,24.05
2017-12-16T02:18:23.235Z,25.75
2017-12-16T02:20:51.499Z,24.40
2017-12-16T02:23:18.983Z,24.67
2017-12-16T02:25:46.477Z,23.90
2017-12-16T02:28:13.967Z,24.42
2017-12-16T02:30:42.233Z,24.83
2017-12-16T02:33:09.724Z,24.27
2017-12-16T02:35:37.985Z,23.83
2017-12-16T02:38:06.240Z,25.62
2017-12-16T02:40:33.739Z,24.35
2017-12-16T02:43:01.228Z,24.63
2017-12-16T02:45:28.733Z,24.12
2017-12-16T02:47:56.980Z,23.73
2017-12-16T02:50:24.489Z,24.48
2017-12-16T02:52:51.988Z,23.67
2017-12-16T02:55:19.483Z,24.48
2017-12-16T02:57:47.732Z,24.25
2017-12-16T03:00:15.829Z,23.30
2017-12-16T03:02:44.114Z,24.58
2017-12-16T03:05:11.678Z,22.87
2017-12-16T03:07:39.937Z,23.30
2017-12-16T03:10:08.187Z,24.48
2017-12-16T03:12:35.785Z,24.12
2017-12-16T03:15:04.063Z,23.62
2017-12-16T03:17:32.307Z,22.55
2017-12-16T03:19:59.798Z,23.55
2017-12-16T03:22:28.058Z,23.55
2017-12-16T03:24:57.088Z,22.92
2017-12-16T03:27:24.628Z,22.13
2017-12-16T03:29:52.899Z,22.42
2017-12-16T03:32:21.161Z,22.27
2017-12-16T03:34:50.160Z,21.77
2017-12-16T03:37:17.734Z,22.13
2017-12-16T03:39:45.990Z,22.45
2017-12-16T03:42:13.488Z,22.13
2017-12-16T03:44:41.033Z,22.73
2017-12-16T03:47:09.292Z,24.02
2017-12-16T03:49:37.589Z,23.30
2017-12-16T03:52:05.083Z,24.33
2017-12-16T03:54:32.593Z,23.55
2017-12-16T03:57:00.868Z,22.27
2017-12-16T03:59:29.116Z,22.83
2017-12-16T04:01:56.612Z,23.85
2017-12-16T04:04:24.858Z,24.05
2017-12-16T04:06:52.345Z,23.95
2017-12-16T04:09:20.625Z,24.75
2017-12-16T04:11:48.108Z,25.20
2017-12-16T04:14:15.594Z,23.83
2017-12-16T04:16:43.115Z,23.80
2017-12-16T04:19:10.595Z,23.67
2017-12-16T04:21:38.080Z,23.50
2017-12-16T04:24:05.564Z,23.08
2017-12-16T04:26:33.813Z,24.25
2017-12-16T04:29:01.299Z,22.62
2017-12-16T04:31:29.564Z,22.30
2017-12-16T04:33:57.811Z,23.27
2017-12-16T04:36:25.309Z,22.73
2017-12-16T04:38:53.554Z,22.83
2017-12-16T04:41:21.142Z,22.80
2017-12-16T04:43:49.393Z,23.52
2017-12-16T04:46:16.881Z,23.80
2017-12-16T04:48:45.124Z,24.20
2017-12-16T04:51:12.621Z,23.87
2017-12-16T04:53:40.162Z,23.12
2017-12-16T04:56:08.443Z,23.90
2017-12-16T04:58:36.681Z,23.80
2017-12-16T05:01:04.181Z,24.83
2017-12-16T05:03:32.435Z,22.73
2017-12-16T05:06:00.016Z,23.80
2017-12-16T05:08:28.295Z,25.02
2017-12-16T05:10:56.553Z,24.10
2017-12-16T05:13:24.849Z,23.85
2017-12-16T05:15:52.406Z,23.90
2017-12-16T05:18:20.675Z,24.33
2017-12-16T05:20:48.932Z,24.80
2017-12-16T05:23:16.415Z,23.52
2017-12-16T05:25:44.674Z,24.02
2017-12-16T05:28:12.961Z,23.38
2017-12-16T05:30:41.255Z,23.98
2017-12-16T05:33:08.743Z,24.05
2017-12-16T05:35:36.231Z,23.83
2017-12-16T05:38:03.741Z,21.42
2017-12-16T05:40:31.239Z,23.55
2017-12-16T05:42:58.723Z,23.50
2017-12-16T05:45:26.990Z,22.08
2017-12-16T05:47:54.470Z,23.25
2017-12-16T05:50:22.729Z,23.42
2017-12-16T05:52:50.224Z,24.00
2017-12-16T05:55:17.753Z,24.27
2017-12-16T05:57:46.439Z,24.45
2017-12-16T06:00:14.780Z,24.40
2017-12-16T06:02:42.413Z,23.20
2017-12-16T06:05:10.051Z,22.65
2017-12-16T06:07:37.647Z,23.45
2017-12-16T06:10:05.154Z,23.95
2017-12-16T06:12:33.446Z,22.62
2017-12-16T06:15:01.710Z,22.33
2017-12-16T06:17:29.963Z,28.67
2017-12-16T06:19:57.542Z,24.40
2017-12-16T06:22:25.835Z,23.15
2017-12-16T06:24:54.080Z,23.45
2017-12-16T06:27:21.578Z,23.48
2017-12-16T06:29:49.119Z,24.73
2017-12-16T06:32:17.392Z,23.83
2017-12-16T06:34:45.654Z,24.83
2017-12-16T06:37:13.909Z,24.77
2017-12-16T06:39:41.392Z,25.80
2017-12-16T06:42:09.652Z,26.48
2017-12-16T06:44:37.129Z,26.17
2017-12-16T06:47:04.618Z,25.58
2017-12-16T06:49:32.102Z,25.55
2017-12-16T06:51:59.598Z,27.30
2017-12-16T06:54:27.081Z,26.50
2017-12-16T06:56:55.340Z,27.15
2017-12-16T06:59:23.593Z,25.92
2017-12-16T07:01:51.080Z,25.67
2017-12-16T07:04:19.329Z,26.45
2017-12-16T07:06:46.827Z,26.87
2017-12-16T07:09:14.312Z,27.02
2017-12-16T07:11:41.799Z,27.00
2017-12-16T07:14:09.324Z,26.92
2017-12-16T07:16:37.566Z,26.17
2017-12-16T07:19:05.824Z,25.50
2017-12-16T07:21:33.331Z,26.08
2017-12-16T07:24:00.813Z,26.33
2017-12-16T07:26:28.395Z,26.50
2017-12-16T07:28:55.875Z,28.05
2017-12-16T07:31:24.183Z,30.33
2017-12-16T07:33:51.769Z,28.50
2017-12-16T07:36:19.387Z,27.85
2017-12-16T07:38:46.959Z,26.62
2017-12-16T07:41:14.466Z,26.90
2017-12-16T07:43:41.961Z,26.83
2017-12-16T07:46:09.511Z,26.73
2017-12-16T07:48:37.791Z,25.67
2017-12-16T07:51:06.092Z,27.13
2017-12-16T07:53:33.579Z,25.62
2017-12-16T07:56:01.082Z,25.95
2017-12-16T07:58:29.342Z,25.27
2017-12-16T08:00:56.941Z,26.10
2017-12-16T08:03:24.535Z,31.70
2017-12-16T08:05:52.144Z,27.02
2017-12-16T08:08:19.723Z,26.27
2017-12-16T08:10:47.228Z,26.55
2017-12-16T08:13:14.812Z,25.45
2017-12-16T08:15:43.100Z,24.70
2017-12-16T08:18:10.591Z,26.02
2017-12-16T08:20:38.111Z,25.02
2017-12-16T08:23:05.628Z,26.70
2017-12-16T08:25:33.144Z,25.58
2017-12-16T08:28:00.635Z,25.12
2017-12-16T08:30:28.122Z,25.12
2017-12-16T08:32:55.699Z,26.00
2017-12-16T08:35:23.972Z,25.70
2017-12-16T08:37:52.282Z,24.17
2017-12-16T08:40:19.771Z,25.12
2017-12-16T08:42:47.266Z,24.87
2017-12-16T08:45:15.634Z,26.45
2017-12-16T08:47:43.111Z,23.98
2017-12-16T08:50:11.485Z,26.85
2017-12-16T08:52:39.763Z,24.80
2017-12-16T08:55:08.018Z,25.10
2017-12-16T08:57:35.598Z,26.02
2017-12-16T09:00:03.876Z,27.25
2017-12-16T09:02:32.141Z,27.48
2017-12-16T09:05:00.447Z,29.02
2017-12-16T09:07:28.003Z,28.38
2017-12-16T09:09:55.495Z,27.98
2017-12-16T09:12:22.998Z,25.77
2017-12-16T09:14:51.257Z,25.50
2017-12-16T09:17:18.839Z,26.17
2017-12-16T09:19:47.134Z,26.40
2017-12-16T09:22:14.634Z,25.83
2017-12-16T09:24:42.126Z,25.85
2017-12-16T09:27:10.379Z,24.70
2017-12-16T09:29:37.871Z,32.70
2017-12-16T09:32:05.372Z,27.35
2017-12-16T09:34:32.905Z,26.77
2017-12-16T09:37:01.130Z,29.40
2017-12-16T09:39:28.613Z,25.73
2017-12-16T09:41:56.877Z,24.12
2017-12-16T09:44:25.127Z,23.48
2017-12-16T09:46:52.622Z,25.37
2017-12-16T09:49:20.870Z,24.08
2017-12-16T09:51:48.381Z,23.65
2017-12-16T09:54:15.860Z,24.27
2017-12-16T09:56:43.377Z,26.27
2017-12-16T09:59:11.656Z,25.33
2017-12-16T10:01:40.030Z,25.92
2017-12-16T10:04:08.274Z,25.67
2017-12-16T10:06:38.770Z,27.35
2017-12-16T10:09:07.117Z,25.70
2017-12-16T10:11:34.910Z,24.85
2017-12-16T10:14:02.471Z,25.45
2017-12-16T10:16:29.980Z,27.02
2017-12-16T10:18:57.463Z,23.67
2017-12-16T10:21:25.047Z,25.00
2017-12-16T10:23:52.573Z,22.23
2017-12-16T10:26:20.080Z,23.17
2017-12-16T10:28:47.587Z,26.25
2017-12-16T10:31:15.868Z,25.08
2017-12-16T10:33:44.138Z,22.10
2017-12-16T10:36:12.418Z,22.85
2017-12-16T10:38:40.678Z,23.42
2017-12-16T10:41:08.178Z,22.30
2017-12-16T10:43:35.664Z,23.33
2017-12-16T10:46:03.167Z,22.87
2017-12-16T10:48:31.443Z,23.65
2017-12-16T10:50:59.720Z,23.80
2017-12-16T10:53:28.002Z,24.48
2017-12-16T10:55:56.263Z,22.02
2017-12-16T10:58:24.545Z,23.45
2017-12-16T11:00:54.772Z,22.98
2017-12-16T11:03:23.031Z,24.60
2017-12-16T11:05:50.604Z,23.77
2017-12-16T11:08:18.908Z,24.08
2017-12-16T11:10:46.395Z,23.23
2017-12-16T11:13:13.910Z,23.30
2017-12-16T11:15:41.404Z,23.70
2017-12-16T11:18:08.895Z,23.17
2017-12-16T11:20:36.533Z,23.42
2017-12-16T11:23:04.027Z,21.75
2017-12-16T11:25:32.278Z,23.17
2017-12-16T11:27:59.765Z,22.77
2017-12-16T11:30:28.035Z,24.05
2017-12-16T11:32:56.324Z,23.50
2017-12-16T11:35:24.610Z,23.50
2017-12-16T11:37:52.167Z,24.73
2017-12-16T11:40:19.725Z,23.65
2017-12-16T11:42:47.998Z,23.67
2017-12-16T11:45:16.275Z,23.00
2017-12-16T11:47:44.528Z,23.70
2017-12-16T11:50:12.033Z,22.67
2017-12-16T11:52:39.520Z,21.60
2017-12-16T11:55:07.019Z,21.17
2017-12-16T11:57:35.290Z,20.67
2017-12-16T12:00:02.771Z,20.87
2017-12-16T12:02:30.259Z,20.67
2017-12-16T12:04:57.776Z,20.23
2017-12-16T12:07:26.035Z,20.93
2017-12-16T12:09:53.610Z,22.33
2017-12-16T12:12:21.875Z,21.70
2017-12-16T12:14:50.146Z,22.87
2017-12-16T12:17:18.408Z,21.77
2017-12-16T12:19:45.938Z,22.53
2017-12-16T12:22:13.442Z,21.30
2017-12-16T12:24:41.017Z,22.13
2017-12-16T12:27:09.303Z,21.47
2017-12-16T12:29:36.866Z,22.13
2017-12-16T12:32:04.388Z,21.27
2017-12-16T12:34:31.945Z,20.90
2017-12-16T12:36:59.452Z,22.23
2017-12-16T12:39:26.936Z,22.15
2017-12-16T12:41:54.450Z,22.15
2017-12-16T12:44:21.944Z,21.92
2017-12-16T12:46:49.455Z,23.62
2017-12-16T12:49:17.992Z,23.50
2017-12-16T12:51:46.257Z,22.83
2017-12-16T12:54:13.744Z,23.05
2017-12-16T12:56:41.266Z,23.08
2017-12-16T12:59:08.748Z,22.83
2017-12-16T13:01:36.240Z,23.23
2017-12-16T13:04:04.496Z,23.40
2017-12-16T13:06:31.999Z,23.85
2017-12-16T13:08:59.553Z,22.45
2017-12-16T13:11:27.059Z,21.85
2017-12-16T13:13:54.550Z,23.65
2017-12-16T13:16:22.827Z,22.47
2017-12-16T13:18:51.075Z,21.92
2017-12-16T13:21:18.584Z,22.77
2017-12-16T13:23:46.111Z,21.80
2017-12-16T13:26:13.693Z,23.10
2017-12-16T13:28:41.939Z,23.75
2017-12-16T13:31:09.532Z,22.80
2017-12-16T13:33:37.098Z,22.33
2017-12-16T13:36:04.619Z,22.50
2017-12-16T13:38:32.107Z,30.40
2017-12-16T13:40:59.607Z,22.58
2017-12-16T13:43:27.161Z,23.77
2017-12-16T13:45:54.688Z,25.23
2017-12-16T13:48:22.166Z,23.62
2017-12-16T13:50:49.700Z,23.83
2017-12-16T13:53:17.976Z,22.77
2017-12-16T13:55:46.252Z,22.50
2017-12-16T13:58:13.756Z,24.67
2017-12-16T14:00:41.261Z,23.33
2017-12-16T14:03:09.528Z,22.95
2017-12-16T14:05:37.782Z,23.02
2017-12-16T14:08:05.384Z,24.23
2017-12-16T14:10:33.755Z,23.58
2017-12-16T14:13:02.011Z,24.83
2017-12-16T14:15:29.599Z,23.25
2017-12-16T14:17:57.158Z,24.42
2017-12-16T14:20:25.440Z,25.80
2017-12-16T14:22:52.925Z,24.73
2017-12-16T14:25:20.423Z,25.23
2017-12-16T14:27:48.003Z,24.23
2017-12-16T14:30:16.298Z,24.48
2017-12-16T14:32:43.781Z,25.52
2017-12-16T14:35:11.334Z,26.00
2017-12-16T14:37:42.130Z,25.30
2017-12-16T14:40:10.384Z,30.98
2017-12-16T14:42:37.871Z,25.17
2017-12-16T14:45:05.383Z,24.23
2017-12-16T14:47:32.872Z,22.98
2017-12-16T14:50:00.379Z,22.92
2017-12-16T14:52:27.896Z,20.88
2017-12-16T14:54:56.175Z,21.15
2017-12-16T14:57:24.434Z,22.00
2017-12-16T14:59:52.056Z,21.85
2017-12-16T15:02:19.547Z,21.15
2017-12-16T15:04:47.130Z,21.60
2017-12-16T15:07:15.398Z,21.50
2017-12-16T15:09:43.652Z,20.55
2017-12-16T15:12:11.245Z,20.05
2017-12-16T15:14:39.893Z,18.25
2017-12-16T15:17:08.823Z,18.90
2017-12-16T15:19:36.499Z,18.10
2017-12-16T15:22:04.040Z,18.30
2017-12-16T15:24:32.293Z,19.92
2017-12-16T15:26:59.798Z,18.15
2017-12-16T15:29:27.300Z,18.05
2017-12-16T15:31:54.814Z,17.75
2017-12-16T15:34:22.298Z,18.05
2017-12-16T15:36:49.833Z,18.05
2017-12-16T15:39:17.375Z,19.02
2017-12-16T15:41:45.639Z,18.87
2017-12-16T15:44:14.011Z,19.62
2017-12-16T15:46:42.303Z,19.27
2017-12-16T15:49:10.575Z,19.50
2017-12-16T15:51:38.952Z,21.73
2017-12-16T15:54:07.959Z,20.55
2017-12-16T15:56:35.455Z,19.80
2017-12-16T15:59:02.986Z,21.52
2017-12-16T16:01:30.520Z,22.15
2017-12-16T16:03:58.209Z,21.87
2017-12-16T16:06:25.811Z,21.77
2017-12-16T16:08:53.367Z,21.62
2017-12-16T16:11:21.877Z,23.08
2017-12-16T16:13:50.234Z,24.08
2017-12-16T16:16:18.004Z,23.15
2017-12-16T16:18:45.647Z,22.40
2017-12-16T16:21:13.272Z,23.98
2017-12-16T16:23:40.826Z,21.77
2017-12-16T16:26:08.332Z,24.25
2017-12-16T16:28:35.830Z,23.90
2017-12-16T16:31:04.160Z,22.92
2017-12-16T16:33:31.657Z,23.17
2017-12-16T16:36:00.111Z,23.60
2017-12-16T16:38:27.607Z,23.48
2017-12-16T16:40:55.935Z,23.30
2017-12-16T16:43:23.494Z,22.87
2017-12-16T16:45:51.163Z,23.42
2017-12-16T16:48:18.819Z,25.02
2017-12-16T16:50:46.430Z,23.73
2017-12-16T16:53:14.799Z,24.80
2017-12-16T16:55:43.065Z,23.85
2017-12-16T16:58:11.336Z,25.10
2017-12-16T17:00:39.600Z,24.40
2017-12-16T17:03:07.204Z,25.37
2017-12-16T17:05:34.768Z,24.25
2017-12-16T17:08:02.455Z,25.55
2017-12-16T17:10:29.998Z,26.15
2017-12-16T17:12:57.498Z,24.80
2017-12-16T17:15:25.099Z,25.52
2017-12-16T17:17:53.361Z,24.83
2017-12-16T17:20:21.637Z,25.37
2017-12-16T17:22:49.945Z,26.17
2017-12-16T17:25:17.994Z,25.70
2017-12-16T17:27:46.271Z,26.87
2017-12-16T17:30:14.540Z,25.88
2017-12-16T17:32:42.828Z,25.95
2017-12-16T17:35:11.164Z,25.17
2017-12-16T17:37:38.691Z,26.20
2017-12-16T17:40:06.233Z,25.15
2017-12-16T17:42:33.741Z,25.80
2017-12-16T17:45:01.232Z,26.23
2017-12-16T17:47:29.646Z,25.10
2017-12-16T17:49:57.177Z,23.85
2017-12-16T17:52:25.439Z,25.20
2017-12-16T17:54:52.944Z,24.40
2017-12-16T17:57:20.444Z,25.35
2017-12-16T17:59:48.697Z,25.12
2017-12-16T18:02:16.214Z,24.85
2017-12-16T18:04:43.714Z,24.42
2017-12-16T18:07:11.213Z,26.10
2017-12-16T18:09:39.546Z,24.23
2017-12-16T18:12:07.035Z,25.10
2017-12-16T18:14:35.322Z,25.62
2017-12-16T18:17:03.634Z,25.10
2017-12-16T18:19:31.118Z,23.83
2017-12-16T18:21:58.610Z,25.62
2017-12-16T18:24:26.905Z,25.90
2017-12-16T18:26:54.405Z,26.35
2017-12-16T18:29:21.923Z,24.17
2017-12-16T18:31:49.477Z,26.33
2017-12-16T18:34:17.727Z,25.98
2017-12-16T18:36:45.235Z,24.90
2017-12-16T18:39:12.976Z,25.98
2017-12-16T18:41:41.318Z,25.48
2017-12-16T18:44:08.812Z,26.70
2017-12-16T18:46:37.079Z,26.15
2017-12-16T18:49:05.344Z,24.55
2017-12-16T18:51:33.024Z,23.40
2017-12-16T18:54:01.275Z,22.85
2017-12-16T18:56:29.575Z,23.67
2017-12-16T18:58:57.074Z,23.08
2017-12-16T19:01:24.566Z,22.25
2017-12-16T19:03:52.050Z,23.10
2017-12-16T19:06:20.425Z,24.33
2017-12-16T19:08:48.735Z,23.08
2017-12-16T19:11:16.269Z,22.60
2017-12-16T19:13:44.530Z,23.65
2017-12-16T19:16:12.109Z,23.92
2017-12-16T19:18:39.598Z,23.87
2017-12-16T19:21:07.277Z,24.12
2017-12-16T19:23:34.771Z,22.33
2017-12-16T19:26:03.054Z,20.90
2017-12-16T19:28:31.303Z,20.20
2017-12-16T19:30:58.806Z,21.62
2017-12-16T19:33:26.290Z,21.98
2017-12-16T19:35:53.796Z,22.45
2017-12-16T19:38:22.058Z,20.93
2017-12-16T19:40:49.576Z,21.48
2017-12-16T19:43:17.104Z,22.37
2017-12-16T19:45:45.390Z,22.20
2017-12-16T19:48:12.943Z,23.05
2017-12-16T19:50:41.224Z,23.15
2017-12-16T19:53:08.784Z,23.67
2017-12-16T19:55:36.704Z,23.35
2017-12-16T19:58:05.009Z,22.55
2017-12-16T20:00:32.506Z,21.83
2017-12-16T20:03:00.037Z,22.70
2017-12-16T20:05:28.306Z,23.17
2017-12-16T20:07:56.562Z,22.65
2017-12-16T20:10:24.068Z,23.23
2017-12-16T20:12:51.549Z,22.75
2017-12-16T20:15:19.070Z,24.45
2017-12-16T20:17:46.556Z,23.15
2017-12-16T20:20:14.065Z,23.42
2017-12-16T20:22:41.639Z,24.50
2017-12-16T20:25:09.903Z,25.00
2017-12-16T20:27:38.226Z,23.17
2017-12-16T20:30:05.743Z,25.25
2017-12-16T20:32:34.000Z,23.83
2017-12-16T20:35:01.539Z,24.17
2017-12-16T20:37:29.036Z,23.90
2017-12-16T20:39:57.287Z,23.45
2017-12-16T20:42:24.791Z,22.87
2017-12-16T20:44:52.294Z,24.83
2017-12-16T20:47:19.803Z,25.12
2017-12-16T20:49:48.066Z,23.52
2017-12-16T20:52:16.340Z,23.98
2017-12-16T20:54:44.627Z,24.17
2017-12-16T20:57:12.187Z,25.50
2017-12-16T20:59:39.695Z,24.58
2017-12-16T21:02:07.673Z,25.60
2017-12-16T21:04:35.183Z,26.05
2017-12-16T21:07:02.682Z,25.37
2017-12-16T21:09:30.203Z,23.48
2017-12-16T21:11:59.307Z,25.20
2017-12-16T21:14:26.823Z,24.42
2017-12-16T21:16:55.092Z,23.98
2017-12-16T21:19:22.576Z,23.62
2017-12-16T21:21:50.840Z,24.42
2017-12-16T21:24:19.098Z,22.95
2017-12-16T21:26:46.599Z,22.50
2017-12-16T21:29:14.080Z,22.95
2017-12-16T21:31:41.614Z,22.40
2017-12-16T21:34:09.165Z,21.70
2017-12-16T21:36:37.436Z,22.02
2017-12-16T21:39:06.153Z,22.58
2017-12-16T21:41:33.684Z,23.02
2017-12-16T21:44:01.992Z,23.52
2017-12-16T21:46:29.510Z,23.17
2017-12-16T21:48:57.809Z,22.75
2017-12-16T21:51:25.351Z,23.27
2017-12-16T21:53:53.624Z,26.02
2017-12-16T21:56:21.904Z,23.73
2017-12-16T21:58:50.165Z,24.08
2017-12-16T22:01:17.668Z,22.60
2017-12-16T22:03:45.175Z,22.83
2017-12-16T22:06:12.679Z,22.15
2017-12-16T22:08:40.161Z,21.83
2017-12-16T22:11:07.651Z,20.98
2017-12-16T22:13:35.140Z,21.00
2017-12-16T22:16:02.796Z,22.37
2017-12-16T22:18:31.054Z,22.25
2017-12-16T22:20:58.548Z,23.77
2017-12-16T22:23:26.051Z,21.67
2017-12-16T22:25:53.584Z,22.60
2017-12-16T22:28:21.064Z,23.10
2017-12-16T22:30:48.664Z,22.15
2017-12-16T22:33:16.945Z,23.08
2017-12-16T22:35:44.455Z,23.75
2017-12-16T22:38:12.063Z,21.83
2017-12-16T22:40:39.556Z,22.85
2017-12-16T22:43:07.113Z,22.55
2017-12-16T22:45:35.552Z,22.30
2017-12-16T22:48:03.041Z,21.17
2017-12-16T22:50:30.530Z,22.95
2017-12-16T22:52:58.136Z,22.37
2017-12-16T22:55:26.510Z,21.67
2017-12-16T22:57:54.770Z,21.25
2017-12-16T23:00:22.274Z,21.67
2017-12-16T23:02:49.767Z,22.73
2017-12-16T23:05:17.263Z,22.10
2017-12-16T23:07:45.576Z,20.95
2017-12-16T23:10:13.099Z,21.50
2017-12-16T23:12:41.371Z,20.77
2017-12-16T23:15:09.646Z,21.30
2017-12-16T23:17:37.904Z,22.50
2017-12-16T23:20:05.390Z,21.27
2017-12-16T23:22:33.654Z,22.17
2017-12-16T23:25:01.936Z,24.52
2017-12-16T23:27:30.204Z,20.55
2017-12-16T23:29:58.495Z,20.35
2017-12-16T23:32:26.887Z,19.05
2017-12-16T23:34:54.443Z,19.75
2017-12-16T23:37:21.992Z,20.73
2017-12-16T23:39:50.242Z,18.30
2017-12-16T23:42:17.827Z,19.55
2017-12-16T23:44:46.096Z,17.90
2017-12-16T23:47:14.374Z,18.58
2017-12-16T23:49:42.631Z,17.92
2017-12-16T23:52:10.217Z,18.73
2017-12-16T23:54:38.493Z,18.75
2017-12-16T23:57:06.797Z,18.17
2017-12-16T23:59:34.278Z,17.12
